sensor_id;sensor_type;location;lat;lon;timestamp;temperature;humidity
69418;DHT22;56610;48.872;2.400;2023-08-07T00:01:30;18.20;99.90
69418;DHT22;56610;48.872;2.400;2023-08-07T00:03:56;18.20;99.90
69418;DHT22;56610;48.872;2.400;2023-08-07T00:06:21;18.20;99.90
69418;DHT22;56610;48.872;2.400;2023-08-07T00:08:47;18.30;99.90
69418;DHT22;56610;48.872;2.400;2023-08-07T00:11:12;18.30;99.90
69418;DHT22;56610;48.872;2.400;2023-08-07T00:13:38;18.20;99.90
69418;DHT22;56610;48.872;2.400;2023-08-07T00:16:04;18.40;99.90
69418;DHT22;56610;48.872;2.400;2023-08-07T00:18:29;18.40;99.90
69418;DHT22;56610;48.872;2.400;2023-08-07T00:20:55;18.40;99.90
69418;DHT22;56610;48.872;2.400;2023-08-07T00:23:21;18.40;99.90
69418;DHT22;56610;48.872;2.400;2023-08-07T00:25:46;18.40;99.90
69418;DHT22;56610;48.872;2.400;2023-08-07T00:28:12;18.40;99.90
69418;DHT22;56610;48.872;2.400;2023-08-07T00:30:38;18.40;99.90
69418;DHT22;56610;48.872;2.400;2023-08-07T00:33:03;18.40;99.90
69418;DHT22;56610;48.872;2.400;2023-08-07T00:35:29;18.40;99.90
69418;DHT22;56610;48.872;2.400;2023-08-07T00:37:54;18.30;99.90
69418;DHT22;56610;48.872;2.400;2023-08-07T00:40:20;18.20;99.90
69418;DHT22;56610;48.872;2.400;2023-08-07T00:42:45;18.10;99.90
69418;DHT22;56610;48.872;2.400;2023-08-07T00:45:11;18.10;99.90
69418;DHT22;56610;48.872;2.400;2023-08-07T00:47:37;18.00;99.90
69418;DHT22;56610;48.872;2.400;2023-08-07T00:50:04;17.90;99.90
69418;DHT22;56610;48.872;2.400;2023-08-07T00:52:30;17.90;99.90
69418;DHT22;56610;48.872;2.400;2023-08-07T00:54:57;18.00;99.90
69418;DHT22;56610;48.872;2.400;2023-08-07T00:57:22;18.10;99.90
69418;DHT22;56610;48.872;2.400;2023-08-07T00:59:50;18.10;99.90
69418;DHT22;56610;48.872;2.400;2023-08-07T01:02:15;18.10;99.90
69418;DHT22;56610;48.872;2.400;2023-08-07T01:04:42;18.00;99.90
69418;DHT22;56610;48.872;2.400;2023-08-07T01:07:07;18.10;99.90
69418;DHT22;56610;48.872;2.400;2023-08-07T01:09:33;18.10;99.90
69418;DHT22;56610;48.872;2.400;2023-08-07T01:14:36;17.80;99.90
69418;DHT22;56610;48.872;2.400;2023-08-07T01:17:08;17.80;99.90
69418;DHT22;56610;48.872;2.400;2023-08-07T01:19:35;17.70;99.90
69418;DHT22;56610;48.872;2.400;2023-08-07T01:22:09;17.80;99.90
69418;DHT22;56610;48.872;2.400;2023-08-07T01:24:36;17.80;99.90
69418;DHT22;56610;48.872;2.400;2023-08-07T01:29:51;17.60;99.90
69418;DHT22;56610;48.872;2.400;2023-08-07T01:32:26;17.70;99.90
69418;DHT22;56610;48.872;2.400;2023-08-07T01:34:52;17.50;99.90
69418;DHT22;56610;48.872;2.400;2023-08-07T01:37:19;17.50;99.90
69418;DHT22;56610;48.872;2.400;2023-08-07T01:39:46;17.60;99.90
69418;DHT22;56610;48.872;2.400;2023-08-07T01:42:13;17.60;99.90
69418;DHT22;56610;48.872;2.400;2023-08-07T01:44:38;17.50;99.90
69418;DHT22;56610;48.872;2.400;2023-08-07T01:47:04;17.60;99.90
69418;DHT22;56610;48.872;2.400;2023-08-07T01:49:30;17.50;99.90
69418;DHT22;56610;48.872;2.400;2023-08-07T01:51:56;17.30;99.90
69418;DHT22;56610;48.872;2.400;2023-08-07T01:54:21;17.20;99.90
69418;DHT22;56610;48.872;2.400;2023-08-07T01:56:47;17.10;99.90
69418;DHT22;56610;48.872;2.400;2023-08-07T01:59:12;17.10;99.90
69418;DHT22;56610;48.872;2.400;2023-08-07T02:01:38;17.10;99.90
69418;DHT22;56610;48.872;2.400;2023-08-07T02:04:03;17.20;99.90
69418;DHT22;56610;48.872;2.400;2023-08-07T02:06:29;17.10;99.90
69418;DHT22;56610;48.872;2.400;2023-08-07T02:08:54;17.00;99.90
69418;DHT22;56610;48.872;2.400;2023-08-07T02:11:20;17.00;99.90
69418;DHT22;56610;48.872;2.400;2023-08-07T02:13:46;17.00;99.90
69418;DHT22;56610;48.872;2.400;2023-08-07T02:16:11;17.10;99.90
69418;DHT22;56610;48.872;2.400;2023-08-07T02:18:37;17.00;99.90
69418;DHT22;56610;48.872;2.400;2023-08-07T02:21:02;16.90;99.90
69418;DHT22;56610;48.872;2.400;2023-08-07T02:23:28;16.90;99.90
69418;DHT22;56610;48.872;2.400;2023-08-07T02:25:54;16.90;99.90
69418;DHT22;56610;48.872;2.400;2023-08-07T02:28:20;16.90;99.90
69418;DHT22;56610;48.872;2.400;2023-08-07T02:30:46;16.90;99.90
69418;DHT22;56610;48.872;2.400;2023-08-07T02:33:14;17.00;99.90
69418;DHT22;56610;48.872;2.400;2023-08-07T02:35:39;17.00;99.90
69418;DHT22;56610;48.872;2.400;2023-08-07T02:38:05;17.00;99.90
69418;DHT22;56610;48.872;2.400;2023-08-07T02:40:31;17.00;99.90
69418;DHT22;56610;48.872;2.400;2023-08-07T02:42:56;17.00;99.90
69418;DHT22;56610;48.872;2.400;2023-08-07T02:45:22;17.00;99.90
69418;DHT22;56610;48.872;2.400;2023-08-07T02:47:47;17.10;99.90
69418;DHT22;56610;48.872;2.400;2023-08-07T02:50:13;17.00;99.90
69418;DHT22;56610;48.872;2.400;2023-08-07T02:52:38;16.90;99.90
69418;DHT22;56610;48.872;2.400;2023-08-07T02:55:04;16.90;99.90
69418;DHT22;56610;48.872;2.400;2023-08-07T02:57:30;17.00;99.90
69418;DHT22;56610;48.872;2.400;2023-08-07T02:59:55;16.80;99.90
69418;DHT22;56610;48.872;2.400;2023-08-07T03:02:21;16.90;99.90
69418;DHT22;56610;48.872;2.400;2023-08-07T03:04:47;17.00;99.90
69418;DHT22;56610;48.872;2.400;2023-08-07T03:07:12;16.90;99.90
69418;DHT22;56610;48.872;2.400;2023-08-07T03:09:38;16.90;99.90
69418;DHT22;56610;48.872;2.400;2023-08-07T03:12:04;16.90;99.90
69418;DHT22;56610;48.872;2.400;2023-08-07T03:14:30;17.00;99.90
69418;DHT22;56610;48.872;2.400;2023-08-07T03:16:56;17.10;99.90
69418;DHT22;56610;48.872;2.400;2023-08-07T03:19:21;17.10;99.90
69418;DHT22;56610;48.872;2.400;2023-08-07T03:21:47;17.20;99.90
69418;DHT22;56610;48.872;2.400;2023-08-07T03:24:12;17.10;99.90
69418;DHT22;56610;48.872;2.400;2023-08-07T03:26:38;17.10;99.90
69418;DHT22;56610;48.872;2.400;2023-08-07T03:29:04;17.00;99.90
69418;DHT22;56610;48.872;2.400;2023-08-07T03:31:29;17.10;99.90
69418;DHT22;56610;48.872;2.400;2023-08-07T03:33:55;17.00;99.90
69418;DHT22;56610;48.872;2.400;2023-08-07T03:36:22;17.10;99.90
69418;DHT22;56610;48.872;2.400;2023-08-07T03:38:47;17.20;99.90
69418;DHT22;56610;48.872;2.400;2023-08-07T03:41:13;17.30;99.90
69418;DHT22;56610;48.872;2.400;2023-08-07T03:43:38;17.30;99.90
69418;DHT22;56610;48.872;2.400;2023-08-07T03:46:04;17.30;99.90
69418;DHT22;56610;48.872;2.400;2023-08-07T03:48:30;17.30;99.90
69418;DHT22;56610;48.872;2.400;2023-08-07T03:51:03;17.30;99.90
69418;DHT22;56610;48.872;2.400;2023-08-07T03:53:29;17.30;99.90
69418;DHT22;56610;48.872;2.400;2023-08-07T03:55:55;17.30;99.90
69418;DHT22;56610;48.872;2.400;2023-08-07T03:58:20;17.20;99.90
69418;DHT22;56610;48.872;2.400;2023-08-07T04:00:46;17.20;99.90
69418;DHT22;56610;48.872;2.400;2023-08-07T04:03:11;17.20;99.90
69418;DHT22;56610;48.872;2.400;2023-08-07T04:05:37;17.30;99.90
69418;DHT22;56610;48.872;2.400;2023-08-07T04:08:02;17.20;99.90
69418;DHT22;56610;48.872;2.400;2023-08-07T04:10:28;17.20;99.90
69418;DHT22;56610;48.872;2.400;2023-08-07T04:12:53;17.20;99.90
69418;DHT22;56610;48.872;2.400;2023-08-07T04:15:19;17.20;99.90
69418;DHT22;56610;48.872;2.400;2023-08-07T04:17:44;17.20;99.90
69418;DHT22;56610;48.872;2.400;2023-08-07T04:20:10;17.20;99.90
69418;DHT22;56610;48.872;2.400;2023-08-07T04:22:36;17.20;99.90
69418;DHT22;56610;48.872;2.400;2023-08-07T04:25:02;17.10;99.90
69418;DHT22;56610;48.872;2.400;2023-08-07T04:27:27;17.10;99.90
69418;DHT22;56610;48.872;2.400;2023-08-07T04:29:53;17.10;99.90
69418;DHT22;56610;48.872;2.400;2023-08-07T04:32:19;17.10;99.90
69418;DHT22;56610;48.872;2.400;2023-08-07T04:34:44;17.10;99.90
69418;DHT22;56610;48.872;2.400;2023-08-07T04:37:10;17.00;99.90
69418;DHT22;56610;48.872;2.400;2023-08-07T04:39:35;17.10;99.90
69418;DHT22;56610;48.872;2.400;2023-08-07T04:42:02;17.20;99.90
69418;DHT22;56610;48.872;2.400;2023-08-07T04:44:27;17.30;99.90
69418;DHT22;56610;48.872;2.400;2023-08-07T04:46:53;17.30;99.90
69418;DHT22;56610;48.872;2.400;2023-08-07T04:49:19;17.30;99.90
69418;DHT22;56610;48.872;2.400;2023-08-07T04:51:44;17.30;99.90
69418;DHT22;56610;48.872;2.400;2023-08-07T04:54:10;17.30;99.90
69418;DHT22;56610;48.872;2.400;2023-08-07T04:56:35;17.20;99.90
69418;DHT22;56610;48.872;2.400;2023-08-07T04:59:01;17.20;99.90
69418;DHT22;56610;48.872;2.400;2023-08-07T05:01:27;17.10;99.90
69418;DHT22;56610;48.872;2.400;2023-08-07T05:03:52;17.20;99.90
69418;DHT22;56610;48.872;2.400;2023-08-07T05:06:18;17.20;99.90
69418;DHT22;56610;48.872;2.400;2023-08-07T05:08:44;17.20;99.90
69418;DHT22;56610;48.872;2.400;2023-08-07T05:11:10;17.30;99.90
69418;DHT22;56610;48.872;2.400;2023-08-07T05:13:35;17.30;99.90
69418;DHT22;56610;48.872;2.400;2023-08-07T05:16:01;17.20;99.90
69418;DHT22;56610;48.872;2.400;2023-08-07T05:18:26;17.10;99.90
69418;DHT22;56610;48.872;2.400;2023-08-07T05:20:52;17.10;99.90
69418;DHT22;56610;48.872;2.400;2023-08-07T05:23:18;17.10;99.90
69418;DHT22;56610;48.872;2.400;2023-08-07T05:25:46;17.00;99.90
69418;DHT22;56610;48.872;2.400;2023-08-07T05:28:12;16.90;99.90
69418;DHT22;56610;48.872;2.400;2023-08-07T05:30:38;17.00;99.90
69418;DHT22;56610;48.872;2.400;2023-08-07T05:33:04;16.90;99.90
69418;DHT22;56610;48.872;2.400;2023-08-07T05:35:30;16.70;99.90
69418;DHT22;56610;48.872;2.400;2023-08-07T05:37:56;16.70;99.90
69418;DHT22;56610;48.872;2.400;2023-08-07T05:40:21;16.70;99.90
69418;DHT22;56610;48.872;2.400;2023-08-07T05:42:47;16.60;99.90
69418;DHT22;56610;48.872;2.400;2023-08-07T05:45:12;16.50;99.90
69418;DHT22;56610;48.872;2.400;2023-08-07T05:47:38;16.50;99.90
69418;DHT22;56610;48.872;2.400;2023-08-07T05:50:04;16.50;99.90
69418;DHT22;56610;48.872;2.400;2023-08-07T05:52:29;16.60;99.90
69418;DHT22;56610;48.872;2.400;2023-08-07T05:54:55;16.60;99.90
69418;DHT22;56610;48.872;2.400;2023-08-07T05:57:21;16.70;99.90
69418;DHT22;56610;48.872;2.400;2023-08-07T05:59:46;16.80;99.90
69418;DHT22;56610;48.872;2.400;2023-08-07T06:02:12;16.80;99.90
69418;DHT22;56610;48.872;2.400;2023-08-07T06:04:38;16.90;99.90
69418;DHT22;56610;48.872;2.400;2023-08-07T06:07:04;16.80;99.90
69418;DHT22;56610;48.872;2.400;2023-08-07T06:09:30;17.00;99.90
69418;DHT22;56610;48.872;2.400;2023-08-07T06:11:59;17.00;99.90
69418;DHT22;56610;48.872;2.400;2023-08-07T06:14:24;17.00;99.90
69418;DHT22;56610;48.872;2.400;2023-08-07T06:16:51;17.00;99.90
69418;DHT22;56610;48.872;2.400;2023-08-07T06:19:16;17.00;99.90
69418;DHT22;56610;48.872;2.400;2023-08-07T06:21:43;17.00;99.90
69418;DHT22;56610;48.872;2.400;2023-08-07T06:24:08;17.10;99.90
69418;DHT22;56610;48.872;2.400;2023-08-07T06:26:34;17.30;99.90
69418;DHT22;56610;48.872;2.400;2023-08-07T06:28:59;17.30;99.90
69418;DHT22;56610;48.872;2.400;2023-08-07T06:31:25;17.30;99.90
69418;DHT22;56610;48.872;2.400;2023-08-07T06:33:50;17.30;99.90
69418;DHT22;56610;48.872;2.400;2023-08-07T06:36:16;17.30;99.90
69418;DHT22;56610;48.872;2.400;2023-08-07T06:38:42;17.40;99.90
69418;DHT22;56610;48.872;2.400;2023-08-07T06:41:07;17.40;99.90
69418;DHT22;56610;48.872;2.400;2023-08-07T06:43:33;17.50;99.90
69418;DHT22;56610;48.872;2.400;2023-08-07T06:45:58;17.50;99.90
69418;DHT22;56610;48.872;2.400;2023-08-07T06:48:24;17.60;99.90
69418;DHT22;56610;48.872;2.400;2023-08-07T06:50:50;17.60;99.90
69418;DHT22;56610;48.872;2.400;2023-08-07T06:53:16;17.60;99.90
69418;DHT22;56610;48.872;2.400;2023-08-07T06:55:42;17.40;99.90
69418;DHT22;56610;48.872;2.400;2023-08-07T06:58:08;17.50;99.90
69418;DHT22;56610;48.872;2.400;2023-08-07T07:00:35;17.50;99.90
69418;DHT22;56610;48.872;2.400;2023-08-07T07:03:01;17.50;99.90
69418;DHT22;56610;48.872;2.400;2023-08-07T07:05:27;17.60;99.90
69418;DHT22;56610;48.872;2.400;2023-08-07T07:07:53;17.60;99.90
69418;DHT22;56610;48.872;2.400;2023-08-07T07:10:20;17.70;99.90
69418;DHT22;56610;48.872;2.400;2023-08-07T07:12:45;17.80;99.90
69418;DHT22;56610;48.872;2.400;2023-08-07T07:15:11;17.90;99.90
69418;DHT22;56610;48.872;2.400;2023-08-07T07:17:36;18.00;99.90
69418;DHT22;56610;48.872;2.400;2023-08-07T07:20:02;18.00;99.90
69418;DHT22;56610;48.872;2.400;2023-08-07T07:22:28;18.00;99.90
69418;DHT22;56610;48.872;2.400;2023-08-07T07:24:54;18.10;99.90
69418;DHT22;56610;48.872;2.400;2023-08-07T07:27:19;18.10;99.90
69418;DHT22;56610;48.872;2.400;2023-08-07T07:29:47;18.00;99.90
69418;DHT22;56610;48.872;2.400;2023-08-07T07:32:13;18.00;99.90
69418;DHT22;56610;48.872;2.400;2023-08-07T07:34:39;18.00;99.90
69418;DHT22;56610;48.872;2.400;2023-08-07T07:37:04;18.00;99.90
69418;DHT22;56610;48.872;2.400;2023-08-07T07:39:30;18.00;99.90
69418;DHT22;56610;48.872;2.400;2023-08-07T07:41:55;18.00;99.90
69418;DHT22;56610;48.872;2.400;2023-08-07T07:44:21;18.10;99.90
69418;DHT22;56610;48.872;2.400;2023-08-07T07:46:47;18.10;99.90
69418;DHT22;56610;48.872;2.400;2023-08-07T07:49:12;18.20;99.90
69418;DHT22;56610;48.872;2.400;2023-08-07T07:51:38;18.30;99.90
69418;DHT22;56610;48.872;2.400;2023-08-07T07:54:03;18.30;99.90
69418;DHT22;56610;48.872;2.400;2023-08-07T07:56:29;18.20;99.90
69418;DHT22;56610;48.872;2.400;2023-08-07T07:58:55;18.20;99.90
69418;DHT22;56610;48.872;2.400;2023-08-07T08:01:20;18.20;99.90
69418;DHT22;56610;48.872;2.400;2023-08-07T08:03:46;18.20;99.90
69418;DHT22;56610;48.872;2.400;2023-08-07T08:06:12;18.20;99.90
69418;DHT22;56610;48.872;2.400;2023-08-07T08:08:38;18.40;99.90
69418;DHT22;56610;48.872;2.400;2023-08-07T08:11:03;18.40;99.90
69418;DHT22;56610;48.872;2.400;2023-08-07T08:13:29;18.50;99.90
69418;DHT22;56610;48.872;2.400;2023-08-07T08:15:55;18.50;99.90
69418;DHT22;56610;48.872;2.400;2023-08-07T08:18:20;18.50;99.90
69418;DHT22;56610;48.872;2.400;2023-08-07T08:20:46;18.60;99.90
69418;DHT22;56610;48.872;2.400;2023-08-07T08:23:11;18.70;99.90
69418;DHT22;56610;48.872;2.400;2023-08-07T08:25:37;18.70;99.90
69418;DHT22;56610;48.872;2.400;2023-08-07T08:28:03;18.80;99.90
69418;DHT22;56610;48.872;2.400;2023-08-07T08:30:29;18.90;99.90
69418;DHT22;56610;48.872;2.400;2023-08-07T08:32:54;18.90;99.90
69418;DHT22;56610;48.872;2.400;2023-08-07T08:35:20;18.80;99.90
69418;DHT22;56610;48.872;2.400;2023-08-07T08:37:45;18.80;99.90
69418;DHT22;56610;48.872;2.400;2023-08-07T08:40:11;18.90;99.90
69418;DHT22;56610;48.872;2.400;2023-08-07T08:42:45;18.90;99.90
69418;DHT22;56610;48.872;2.400;2023-08-07T08:45:13;18.90;99.90
69418;DHT22;56610;48.872;2.400;2023-08-07T08:47:39;18.80;99.90
69418;DHT22;56610;48.872;2.400;2023-08-07T08:50:08;18.90;99.90
69418;DHT22;56610;48.872;2.400;2023-08-07T08:52:40;18.90;99.90
69418;DHT22;56610;48.872;2.400;2023-08-07T08:55:06;19.00;99.90
69418;DHT22;56610;48.872;2.400;2023-08-07T08:57:32;19.20;99.90
69418;DHT22;56610;48.872;2.400;2023-08-07T08:59:59;19.20;99.90
69418;DHT22;56610;48.872;2.400;2023-08-07T09:02:25;19.10;99.90
69418;DHT22;56610;48.872;2.400;2023-08-07T09:04:50;19.20;99.90
69418;DHT22;56610;48.872;2.400;2023-08-07T09:07:16;19.20;99.90
69418;DHT22;56610;48.872;2.400;2023-08-07T09:09:44;19.30;99.90
69418;DHT22;56610;48.872;2.400;2023-08-07T09:12:20;19.20;99.90
69418;DHT22;56610;48.872;2.400;2023-08-07T09:14:50;19.30;99.90
69418;DHT22;56610;48.872;2.400;2023-08-07T09:17:19;19.40;99.90
69418;DHT22;56610;48.872;2.400;2023-08-07T09:19:47;19.40;99.90
69418;DHT22;56610;48.872;2.400;2023-08-07T09:22:12;19.60;99.90
69418;DHT22;56610;48.872;2.400;2023-08-07T09:24:39;19.70;99.90
69418;DHT22;56610;48.872;2.400;2023-08-07T09:27:07;19.80;99.90
69418;DHT22;56610;48.872;2.400;2023-08-07T09:29:33;19.90;99.90
69418;DHT22;56610;48.872;2.400;2023-08-07T09:32:07;19.90;99.90
69418;DHT22;56610;48.872;2.400;2023-08-07T09:34:33;19.80;99.90
69418;DHT22;56610;48.872;2.400;2023-08-07T09:36:59;19.80;99.90
69418;DHT22;56610;48.872;2.400;2023-08-07T09:39:24;19.80;99.90
69418;DHT22;56610;48.872;2.400;2023-08-07T09:41:51;19.80;99.90
69418;DHT22;56610;48.872;2.400;2023-08-07T09:44:17;19.90;99.90
69418;DHT22;56610;48.872;2.400;2023-08-07T09:46:44;20.10;99.90
69418;DHT22;56610;48.872;2.400;2023-08-07T09:49:10;20.00;99.90
69418;DHT22;56610;48.872;2.400;2023-08-07T09:51:43;20.00;99.90
69418;DHT22;56610;48.872;2.400;2023-08-07T09:54:08;19.90;99.90
69418;DHT22;56610;48.872;2.400;2023-08-07T09:56:35;19.90;99.90
69418;DHT22;56610;48.872;2.400;2023-08-07T09:59:01;20.00;99.90
69418;DHT22;56610;48.872;2.400;2023-08-07T10:01:26;20.10;99.90
69418;DHT22;56610;48.872;2.400;2023-08-07T10:03:52;20.10;99.90
69418;DHT22;56610;48.872;2.400;2023-08-07T10:06:18;20.30;99.90
69418;DHT22;56610;48.872;2.400;2023-08-07T10:08:45;20.30;99.90
69418;DHT22;56610;48.872;2.400;2023-08-07T10:11:11;20.40;99.90
69418;DHT22;56610;48.872;2.400;2023-08-07T10:13:40;20.40;99.90
69418;DHT22;56610;48.872;2.400;2023-08-07T10:16:07;20.50;99.90
69418;DHT22;56610;48.872;2.400;2023-08-07T10:18:35;20.50;99.90
69418;DHT22;56610;48.872;2.400;2023-08-07T10:21:03;20.60;99.90
69418;DHT22;56610;48.872;2.400;2023-08-07T10:23:32;20.60;99.90
69418;DHT22;56610;48.872;2.400;2023-08-07T10:26:00;20.60;99.90
69418;DHT22;56610;48.872;2.400;2023-08-07T10:28:27;20.70;99.90
69418;DHT22;56610;48.872;2.400;2023-08-07T10:31:03;20.70;99.90
69418;DHT22;56610;48.872;2.400;2023-08-07T10:33:30;20.60;99.90
69418;DHT22;56610;48.872;2.400;2023-08-07T10:35:57;20.70;99.90
69418;DHT22;56610;48.872;2.400;2023-08-07T10:38:25;20.80;99.90
69418;DHT22;56610;48.872;2.400;2023-08-07T10:41:08;20.90;99.90
69418;DHT22;56610;48.872;2.400;2023-08-07T10:43:38;20.90;99.90
69418;DHT22;56610;48.872;2.400;2023-08-07T10:46:16;20.90;99.90
69418;DHT22;56610;48.872;2.400;2023-08-07T10:48:53;21.00;99.90
69418;DHT22;56610;48.872;2.400;2023-08-07T10:51:19;21.20;99.90
69418;DHT22;56610;48.872;2.400;2023-08-07T10:53:47;21.30;99.90
69418;DHT22;56610;48.872;2.400;2023-08-07T10:56:18;21.40;99.90
69418;DHT22;56610;48.872;2.400;2023-08-07T10:58:50;21.40;99.90
69418;DHT22;56610;48.872;2.400;2023-08-07T11:06:26;21.70;99.90
69418;DHT22;56610;48.872;2.400;2023-08-07T11:08:53;21.80;99.90
69418;DHT22;56610;48.872;2.400;2023-08-07T11:11:19;22.00;99.90
69418;DHT22;56610;48.872;2.400;2023-08-07T11:13:44;22.00;99.90
69418;DHT22;56610;48.872;2.400;2023-08-07T11:16:11;21.90;99.90
69418;DHT22;56610;48.872;2.400;2023-08-07T11:18:38;22.00;99.90
69418;DHT22;56610;48.872;2.400;2023-08-07T11:21:10;22.00;99.90
69418;DHT22;56610;48.872;2.400;2023-08-07T11:23:37;22.30;99.90
69418;DHT22;56610;48.872;2.400;2023-08-07T11:26:03;22.70;99.90
69418;DHT22;56610;48.872;2.400;2023-08-07T11:28:29;22.80;99.90
69418;DHT22;56610;48.872;2.400;2023-08-07T11:30:56;23.00;99.90
69418;DHT22;56610;48.872;2.400;2023-08-07T11:33:23;23.00;99.90
69418;DHT22;56610;48.872;2.400;2023-08-07T11:35:49;23.20;99.90
69418;DHT22;56610;48.872;2.400;2023-08-07T11:38:38;23.30;99.90
69418;DHT22;56610;48.872;2.400;2023-08-07T11:41:06;23.50;99.90
69418;DHT22;56610;48.872;2.400;2023-08-07T11:43:33;23.60;99.90
69418;DHT22;56610;48.872;2.400;2023-08-07T11:46:01;23.80;99.90
69418;DHT22;56610;48.872;2.400;2023-08-07T11:48:28;23.70;99.90
69418;DHT22;56610;48.872;2.400;2023-08-07T11:50:55;23.60;99.90
69418;DHT22;56610;48.872;2.400;2023-08-07T11:53:22;23.50;99.90
69418;DHT22;56610;48.872;2.400;2023-08-07T11:55:55;23.40;99.90
69418;DHT22;56610;48.872;2.400;2023-08-07T11:58:21;23.50;99.90
69418;DHT22;56610;48.872;2.400;2023-08-07T12:00:47;23.40;99.90
69418;DHT22;56610;48.872;2.400;2023-08-07T12:03:30;23.40;99.90
69418;DHT22;56610;48.872;2.400;2023-08-07T12:05:57;23.40;99.90
69418;DHT22;56610;48.872;2.400;2023-08-07T12:08:25;23.40;99.90
69418;DHT22;56610;48.872;2.400;2023-08-07T12:10:56;23.40;99.90
69418;DHT22;56610;48.872;2.400;2023-08-07T12:13:25;23.50;99.90
69418;DHT22;56610;48.872;2.400;2023-08-07T12:15:54;23.60;99.90
69418;DHT22;56610;48.872;2.400;2023-08-07T12:18:20;23.70;99.90
69418;DHT22;56610;48.872;2.400;2023-08-07T12:20:50;23.80;99.90
69418;DHT22;56610;48.872;2.400;2023-08-07T12:23:17;24.10;99.90
69418;DHT22;56610;48.872;2.400;2023-08-07T12:25:44;24.40;99.90
69418;DHT22;56610;48.872;2.400;2023-08-07T12:28:10;24.60;99.90
69418;DHT22;56610;48.872;2.400;2023-08-07T12:30:36;24.80;99.90
69418;DHT22;56610;48.872;2.400;2023-08-07T12:33:03;25.00;99.90
69418;DHT22;56610;48.872;2.400;2023-08-07T12:35:30;25.30;99.90
69418;DHT22;56610;48.872;2.400;2023-08-07T12:37:56;25.50;99.00
69418;DHT22;56610;48.872;2.400;2023-08-07T12:40:21;25.60;98.30
69418;DHT22;56610;48.872;2.400;2023-08-07T12:42:48;25.90;98.50
69418;DHT22;56610;48.872;2.400;2023-08-07T12:45:14;25.90;99.20
69418;DHT22;56610;48.872;2.400;2023-08-07T12:47:41;26.10;98.60
69418;DHT22;56610;48.872;2.400;2023-08-07T12:50:07;26.00;97.70
69418;DHT22;56610;48.872;2.400;2023-08-07T12:52:34;26.00;97.70
69418;DHT22;56610;48.872;2.400;2023-08-07T12:54:59;26.00;97.40
69418;DHT22;56610;48.872;2.400;2023-08-07T12:57:25;26.00;97.40
69418;DHT22;56610;48.872;2.400;2023-08-07T12:59:51;26.40;98.10
69418;DHT22;56610;48.872;2.400;2023-08-07T13:02:17;26.50;97.50
69418;DHT22;56610;48.872;2.400;2023-08-07T13:04:42;26.50;98.10
69418;DHT22;56610;48.872;2.400;2023-08-07T13:07:08;26.60;96.70
69418;DHT22;56610;48.872;2.400;2023-08-07T13:09:33;26.70;96.30
69418;DHT22;56610;48.872;2.400;2023-08-07T13:11:59;26.70;97.30
69418;DHT22;56610;48.872;2.400;2023-08-07T13:14:25;27.00;95.70
69418;DHT22;56610;48.872;2.400;2023-08-07T13:16:50;27.00;95.20
69418;DHT22;56610;48.872;2.400;2023-08-07T13:19:16;26.70;94.40
69418;DHT22;56610;48.872;2.400;2023-08-07T13:21:42;26.60;94.10
69418;DHT22;56610;48.872;2.400;2023-08-07T13:24:07;26.50;94.60
69418;DHT22;56610;48.872;2.400;2023-08-07T13:26:33;26.70;95.10
69418;DHT22;56610;48.872;2.400;2023-08-07T13:28:58;27.00;95.10
69418;DHT22;56610;48.872;2.400;2023-08-07T13:31:24;27.30;95.00
69418;DHT22;56610;48.872;2.400;2023-08-07T13:33:49;27.40;94.00
69418;DHT22;56610;48.872;2.400;2023-08-07T13:36:15;27.50;94.20
69418;DHT22;56610;48.872;2.400;2023-08-07T13:38:41;27.30;93.50
69418;DHT22;56610;48.872;2.400;2023-08-07T13:41:06;27.00;92.90
69418;DHT22;56610;48.872;2.400;2023-08-07T13:43:33;26.60;92.90
69418;DHT22;56610;48.872;2.400;2023-08-07T13:45:58;26.30;93.80
69418;DHT22;56610;48.872;2.400;2023-08-07T13:48:24;26.00;94.40
69418;DHT22;56610;48.872;2.400;2023-08-07T13:50:53;25.60;94.70
69418;DHT22;56610;48.872;2.400;2023-08-07T13:53:19;25.30;94.80
69418;DHT22;56610;48.872;2.400;2023-08-07T13:55:49;25.10;95.70
69418;DHT22;56610;48.872;2.400;2023-08-07T13:58:15;24.90;95.60
69418;DHT22;56610;48.872;2.400;2023-08-07T14:00:41;24.80;95.80
69418;DHT22;56610;48.872;2.400;2023-08-07T14:03:08;24.70;96.00
69418;DHT22;56610;48.872;2.400;2023-08-07T14:05:34;24.60;96.10
69418;DHT22;56610;48.872;2.400;2023-08-07T14:07:59;24.60;96.10
69418;DHT22;56610;48.872;2.400;2023-08-07T14:10:25;24.70;96.90
69418;DHT22;56610;48.872;2.400;2023-08-07T14:12:51;24.80;96.70
69418;DHT22;56610;48.872;2.400;2023-08-07T14:15:16;24.80;96.30
69418;DHT22;56610;48.872;2.400;2023-08-07T14:17:42;24.80;96.80
69418;DHT22;56610;48.872;2.400;2023-08-07T14:20:08;24.90;97.40
69418;DHT22;56610;48.872;2.400;2023-08-07T14:22:34;24.80;96.90
69418;DHT22;56610;48.872;2.400;2023-08-07T14:25:02;24.90;96.40
69418;DHT22;56610;48.872;2.400;2023-08-07T14:27:28;24.90;97.30
69418;DHT22;56610;48.872;2.400;2023-08-07T14:29:54;24.90;96.90
69418;DHT22;56610;48.872;2.400;2023-08-07T14:32:19;24.90;96.50
69418;DHT22;56610;48.872;2.400;2023-08-07T14:34:45;24.90;96.80
69418;DHT22;56610;48.872;2.400;2023-08-07T14:37:13;24.90;97.00
69418;DHT22;56610;48.872;2.400;2023-08-07T14:39:38;25.00;97.30
69418;DHT22;56610;48.872;2.400;2023-08-07T14:42:04;25.10;97.30
69418;DHT22;56610;48.872;2.400;2023-08-07T14:44:30;25.10;97.20
69418;DHT22;56610;48.872;2.400;2023-08-07T14:46:55;25.20;96.90
69418;DHT22;56610;48.872;2.400;2023-08-07T14:49:21;25.20;96.80
69418;DHT22;56610;48.872;2.400;2023-08-07T14:51:47;25.20;96.70
69418;DHT22;56610;48.872;2.400;2023-08-07T14:54:12;25.40;96.20
69418;DHT22;56610;48.872;2.400;2023-08-07T14:56:38;25.30;96.40
69418;DHT22;56610;48.872;2.400;2023-08-07T14:59:03;25.30;96.30
69418;DHT22;56610;48.872;2.400;2023-08-07T15:01:29;25.10;96.30
69418;DHT22;56610;48.872;2.400;2023-08-07T15:03:55;25.10;96.40
69418;DHT22;56610;48.872;2.400;2023-08-07T15:06:20;25.10;96.50
69418;DHT22;56610;48.872;2.400;2023-08-07T15:08:47;25.00;97.00
69418;DHT22;56610;48.872;2.400;2023-08-07T15:11:12;24.90;97.10
69418;DHT22;56610;48.872;2.400;2023-08-07T15:13:38;24.90;97.70
69418;DHT22;56610;48.872;2.400;2023-08-07T15:16:05;25.00;97.40
69418;DHT22;56610;48.872;2.400;2023-08-07T15:18:31;24.90;97.40
69418;DHT22;56610;48.872;2.400;2023-08-07T15:21:01;24.60;98.00
69418;DHT22;56610;48.872;2.400;2023-08-07T15:23:27;24.50;98.70
69418;DHT22;56610;48.872;2.400;2023-08-07T15:25:52;24.60;98.50
69418;DHT22;56610;48.872;2.400;2023-08-07T15:28:18;24.60;99.30
69418;DHT22;56610;48.872;2.400;2023-08-07T15:30:48;25.00;98.90
69418;DHT22;56610;48.872;2.400;2023-08-07T15:33:14;25.20;97.70
69418;DHT22;56610;48.872;2.400;2023-08-07T15:35:40;25.30;97.30